Time;durP1;ratioP1;P1;durP2;ratioP2;P2;SDS_P1;SDS_P2;PMS_P1;PMS_P2;Temp;Humidity;BMP_temperature;BMP_pressure;BME280_temperature;BME280_humidity;BME280_pressure;Samples;Min_cycle;Max_cycle;Signal;HPM_P1;HPM_P2
2023/06/13 00:00:05;;;;;;;7.95;3.67;;;19.80;74.90;;;;;;5117569;28;20048;-58
2023/06/13 00:02:31;;;;;;;10.70;4.55;;;19.70;75.00;;;;;;5118449;28;20096;-58
2023/06/13 00:04:57;;;;;;;6.35;3.40;;;19.70;75.40;;;;;;5117923;28;20048;-56
2023/06/13 00:07:23;;;;;;;6.63;3.90;;;19.60;75.50;;;;;;5118323;28;20104;-57
2023/06/13 00:09:49;;;;;;;9.30;3.90;;;19.60;75.70;;;;;;5117825;28;20126;-57
2023/06/13 00:12:20;;;;;;;7.85;3.70;;;19.50;75.90;;;;;;5116860;28;20134;-57
2023/06/13 00:14:50;;;;;;;7.87;3.57;;;19.50;75.90;;;;;;5116369;28;20039;-57
2023/06/13 00:17:17;;;;;;;7.35;3.55;;;19.40;76.80;;;;;;5117701;28;20050;-57
2023/06/13 00:19:43;;;;;;;7.07;3.30;;;19.40;76.70;;;;;;5118685;28;20056;-57
2023/06/13 00:22:11;;;;;;;6.28;3.40;;;19.20;77.00;;;;;;5116495;28;20121;-57
2023/06/13 00:24:37;;;;;;;6.93;3.85;;;19.30;77.10;;;;;;5118076;28;20176;-57
2023/06/13 00:27:03;;;;;;;10.30;3.60;;;19.30;78.10;;;;;;5117345;28;20093;-57
2023/06/13 00:29:29;;;;;;;6.65;3.08;;;19.20;77.30;;;;;;5117846;28;20046;-57
2023/06/13 00:31:54;;;;;;;8.43;3.78;;;19.20;77.60;;;;;;5117499;28;20487;-57
2023/06/13 00:34:20;;;;;;;8.43;3.30;;;19.10;78.10;;;;;;5116143;28;20047;-57
2023/06/13 00:36:46;;;;;;;7.30;3.20;;;19.10;78.20;;;;;;5118556;28;20043;-58
2023/06/13 00:39:11;;;;;;;8.38;4.15;;;19.20;78.40;;;;;;5117347;28;20118;-57
2023/06/13 00:41:37;;;;;;;6.72;3.13;;;19.00;77.90;;;;;;5117788;28;20047;-57
2023/06/13 00:44:04;;;;;;;7.45;3.58;;;19.10;78.30;;;;;;5120601;28;20040;-58
2023/06/13 00:46:34;;;;;;;8.90;3.90;;;19.00;78.00;;;;;;5121337;28;20075;-57
2023/06/13 00:49:00;;;;;;;10.35;4.00;;;18.90;78.00;;;;;;5121401;28;20028;-57
2023/06/13 00:51:28;;;;;;;9.65;3.97;;;18.90;78.90;;;;;;5121073;28;20067;-57
2023/06/13 00:53:55;;;;;;;7.13;3.35;;;19.00;78.70;;;;;;5120425;28;20051;-58
2023/06/13 00:56:23;;;;;;;7.93;3.85;;;18.90;78.90;;;;;;5120804;28;20665;-57
2023/06/13 00:58:50;;;;;;;8.85;3.88;;;18.80;79.40;;;;;;5121482;28;20099;-57
2023/06/13 01:01:19;;;;;;;7.43;3.80;;;18.80;78.80;;;;;;5120951;28;20043;-58
2023/06/13 01:03:45;;;;;;;9.65;3.65;;;18.70;79.10;;;;;;5121263;28;20073;-57
2023/06/13 01:06:13;;;;;;;7.75;3.65;;;18.80;79.60;;;;;;5121112;28;20051;-58
2023/06/13 01:08:40;;;;;;;7.05;3.70;;;18.60;79.70;;;;;;5120789;28;20035;-57
2023/06/13 01:11:18;;;;;;;8.75;3.65;;;18.70;79.60;;;;;;5121206;28;20046;-57
2023/06/13 01:13:54;;;;;;;8.00;3.75;;;18.70;79.80;;;;;;5121042;28;20044;-57
2023/06/13 01:16:36;;;;;;;7.22;3.70;;;18.60;79.70;;;;;;5120503;28;20444;-54
2023/06/13 01:19:18;;;;;;;7.30;4.10;;;18.60;79.80;;;;;;5120957;28;20078;-57
2023/06/13 01:21:45;;;;;;;9.25;3.92;;;18.60;80.10;;;;;;5120832;28;20075;-58
2023/06/13 01:24:19;;;;;;;9.80;3.70;;;18.50;80.00;;;;;;5120782;28;20434;-57
2023/06/13 01:26:51;;;;;;;8.15;3.78;;;18.40;80.40;;;;;;5120557;28;20047;-57
2023/06/13 01:29:18;;;;;;;7.93;4.10;;;18.40;80.60;;;;;;5120696;28;20044;-57
2023/06/13 01:31:46;;;;;;;9.23;4.20;;;18.30;80.40;;;;;;5120108;28;20043;-58
2023/06/13 01:34:13;;;;;;;8.07;3.90;;;18.30;81.00;;;;;;5120364;28;20067;-57
2023/06/13 01:36:39;;;;;;;9.35;4.70;;;18.30;81.60;;;;;;5120991;28;20102;-57
2023/06/13 01:39:05;;;;;;;9.80;4.22;;;18.20;80.60;;;;;;5119133;28;20137;-57
2023/06/13 01:41:30;;;;;;;9.65;4.32;;;18.30;80.50;;;;;;5120376;28;20047;-57
2023/06/13 01:43:56;;;;;;;14.55;4.47;;;18.20;80.80;;;;;;5120165;28;20070;-57
2023/06/13 01:46:28;;;;;;;8.27;3.92;;;18.20;80.80;;;;;;5119940;28;20083;-57
2023/06/13 01:49:16;;;;;;;8.60;4.05;;;18.20;81.90;;;;;;5120033;28;20056;-57
2023/06/13 01:51:55;;;;;;;13.73;5.00;;;18.10;81.00;;;;;;5120192;28;20047;-57
2023/06/13 01:54:22;;;;;;;10.80;4.43;;;18.00;81.20;;;;;;5119235;28;20052;-57
2023/06/13 01:56:55;;;;;;;9.18;4.18;;;18.00;81.40;;;;;;5120152;28;20040;-58
2023/06/13 01:59:25;;;;;;;13.48;5.00;;;17.90;82.10;;;;;;5120204;27;20043;-58
2023/06/13 02:01:53;;;;;;;9.05;4.68;;;17.90;81.70;;;;;;5119763;28;20070;-57
2023/06/13 02:04:19;;;;;;;7.82;4.40;;;17.90;81.60;;;;;;5119664;28;20044;-57
2023/06/13 02:06:45;;;;;;;7.97;4.65;;;17.80;81.50;;;;;;5120549;28;20044;-57
2023/06/13 02:09:11;;;;;;;7.50;3.85;;;17.80;81.70;;;;;;5119805;28;20112;-57
2023/06/13 02:11:37;;;;;;;7.13;4.05;;;17.70;83.30;;;;;;5119744;28;20040;-57
2023/06/13 02:14:03;;;;;;;7.88;4.20;;;17.80;82.70;;;;;;5119659;28;20040;-57
2023/06/13 02:16:30;;;;;;;9.57;4.32;;;17.70;83.30;;;;;;5119773;28;20518;-57
2023/06/13 02:18:59;;;;;;;7.60;4.13;;;17.70;82.60;;;;;;5119485;28;20039;-57
2023/06/13 02:21:25;;;;;;;8.05;4.40;;;17.70;83.70;;;;;;5119484;28;20392;-58
2023/06/13 02:23:51;;;;;;;8.65;4.53;;;17.70;83.30;;;;;;5119512;28;20043;-57
2023/06/13 02:26:17;;;;;;;8.55;4.40;;;17.60;84.20;;;;;;5119535;28;20048;-57
2023/06/13 02:28:43;;;;;;;8.05;4.28;;;17.60;83.30;;;;;;5119488;28;20032;-58
2023/06/13 02:31:08;;;;;;;7.22;3.97;;;17.60;83.20;;;;;;5118153;28;20202;-57
2023/06/13 02:33:36;;;;;;;10.15;4.50;;;17.60;82.80;;;;;;5119093;28;20044;-58
2023/06/13 02:36:02;;;;;;;8.10;4.00;;;17.60;83.10;;;;;;5119258;27;20047;-58
2023/06/13 02:38:28;;;;;;;8.85;4.35;;;17.60;82.70;;;;;;5117839;28;20088;-58
2023/06/13 02:40:54;;;;;;;8.05;3.80;;;17.50;82.50;;;;;;5119900;28;20846;-58
2023/06/13 02:43:20;;;;;;;7.30;4.13;;;17.50;83.10;;;;;;5117807;28;20061;-57
2023/06/13 02:45:46;;;;;;;8.20;4.32;;;17.50;82.90;;;;;;5119300;28;20127;-58
2023/06/13 02:48:12;;;;;;;7.20;3.97;;;17.50;83.10;;;;;;5117776;28;20508;-58
2023/06/13 02:50:37;;;;;;;9.30;3.92;;;17.40;82.90;;;;;;5118819;28;20510;-57
2023/06/13 02:53:03;;;;;;;11.52;4.35;;;17.40;82.30;;;;;;5118896;28;20043;-58
2023/06/13 02:55:30;;;;;;;11.63;4.32;;;17.40;82.90;;;;;;5119005;28;20571;-57
2023/06/13 02:57:56;;;;;;;8.90;4.57;;;17.30;82.50;;;;;;5119376;28;20052;-57
2023/06/13 03:00:22;;;;;;;9.02;4.53;;;17.40;82.70;;;;;;5118897;28;20036;-57
2023/06/13 03:02:48;;;;;;;9.45;4.30;;;17.30;82.60;;;;;;5118641;28;20035;-57
2023/06/13 03:05:16;;;;;;;8.07;4.20;;;17.30;84.20;;;;;;5118344;28;20043;-57
2023/06/13 03:07:46;;;;;;;9.10;4.25;;;17.30;83.20;;;;;;5118447;28;20581;-58
2023/06/13 03:10:13;;;;;;;7.07;4.05;;;17.30;83.30;;;;;;5118819;28;20051;-58
2023/06/13 03:12:41;;;;;;;8.68;4.40;;;17.20;83.50;;;;;;5118485;28;20118;-57
2023/06/13 03:15:08;;;;;;;8.15;4.13;;;17.20;84.10;;;;;;5119072;28;20493;-58
2023/06/13 03:17:34;;;;;;;7.57;4.22;;;17.20;83.50;;;;;;5118669;28;20043;-58
2023/06/13 03:20:00;;;;;;;7.75;4.57;;;17.20;83.30;;;;;;5118481;28;20067;-57
2023/06/13 03:22:25;;;;;;;9.45;4.53;;;17.10;83.90;;;;;;5117447;28;20039;-57
2023/06/13 03:24:52;;;;;;;7.55;4.03;;;17.10;83.70;;;;;;5118429;28;20047;-58
2023/06/13 03:27:18;;;;;;;9.15;4.47;;;17.10;84.20;;;;;;5117191;28;20044;-58
2023/06/13 03:29:47;;;;;;;9.68;4.35;;;17.10;82.90;;;;;;5118364;28;20048;-57
2023/06/13 03:32:13;;;;;;;8.73;4.90;;;17.10;83.00;;;;;;5118537;28;20046;-57
2023/06/13 03:34:39;;;;;;;9.77;4.45;;;17.10;83.60;;;;;;5118057;28;20075;-57
2023/06/13 03:37:07;;;;;;;9.38;4.63;;;17.10;83.90;;;;;;5118599;28;20032;-58
2023/06/13 03:39:33;;;;;;;8.85;4.50;;;17.10;83.70;;;;;;5118722;28;20074;-58
2023/06/13 03:41:59;;;;;;;9.73;4.60;;;17.00;83.60;;;;;;5118146;28;20032;-58
2023/06/13 03:44:25;;;;;;;9.57;4.78;;;17.00;83.60;;;;;;5118359;28;20107;-58
2023/06/13 03:46:51;;;;;;;10.85;4.35;;;17.00;84.00;;;;;;5117933;28;20069;-58
2023/06/13 03:49:18;;;;;;;8.55;4.90;;;17.00;83.60;;;;;;5118474;28;20099;-59
2023/06/13 03:51:44;;;;;;;8.77;4.50;;;17.00;83.30;;;;;;5117937;28;20054;-58
2023/06/13 03:54:10;;;;;;;8.40;4.70;;;17.00;82.90;;;;;;5118376;28;20059;-57
2023/06/13 03:56:36;;;;;;;8.25;4.75;;;16.90;82.80;;;;;;5118346;28;20502;-58
2023/06/13 03:59:02;;;;;;;8.50;4.53;;;17.00;83.00;;;;;;5117918;28;20048;-56
2023/06/13 04:01:28;;;;;;;9.73;4.68;;;17.00;82.30;;;;;;5117976;28;20134;-57
2023/06/13 04:03:54;;;;;;;8.57;4.65;;;17.00;82.60;;;;;;5117792;28;20043;-58
2023/06/13 04:06:20;;;;;;;7.65;4.35;;;17.00;82.40;;;;;;5118335;28;20076;-58
2023/06/13 04:08:46;;;;;;;11.18;4.78;;;17.10;82.70;;;;;;5117787;28;20055;-57
2023/06/13 04:11:12;;;;;;;8.10;4.47;;;17.10;81.70;;;;;;5118618;28;20042;-57
2023/06/13 04:13:37;;;;;;;10.73;4.63;;;17.20;81.60;;;;;;5117931;28;20101;-58
2023/06/13 04:16:03;;;;;;;9.38;4.22;;;17.20;81.80;;;;;;5117838;28;20510;-57
2023/06/13 04:18:29;;;;;;;7.40;4.22;;;17.20;81.40;;;;;;5120054;28;20046;-57
2023/06/13 04:20:57;;;;;;;9.48;4.43;;;17.30;82.70;;;;;;5120852;28;20048;-57
2023/06/13 04:23:25;;;;;;;9.43;4.95;;;17.30;82.60;;;;;;5121899;28;20045;-57
2023/06/13 04:25:52;;;;;;;10.75;5.00;;;17.30;81.80;;;;;;5121526;28;20052;-57
2023/06/13 04:28:18;;;;;;;11.73;4.57;;;17.30;81.90;;;;;;5122004;28;20100;-59
2023/06/13 04:30:46;;;;;;;10.25;4.50;;;17.30;81.70;;;;;;5121532;28;20547;-57
2023/06/13 04:33:16;;;;;;;9.15;4.47;;;17.30;82.20;;;;;;5121337;28;20090;-54
2023/06/13 04:35:44;;;;;;;7.63;4.53;;;17.30;82.40;;;;;;5121481;28;20032;-57
2023/06/13 04:38:14;;;;;;;8.07;4.80;;;17.30;82.40;;;;;;5121911;28;20078;-57
2023/06/13 04:40:40;;;;;;;7.28;4.38;;;17.40;83.10;;;;;;5120480;28;20951;-57
2023/06/13 04:43:06;;;;;;;8.27;4.80;;;17.40;83.60;;;;;;5120963;28;20040;-57
2023/06/13 04:45:32;;;;;;;7.40;4.32;;;17.40;83.70;;;;;;5121658;27;20039;-57
2023/06/13 04:48:01;;;;;;;7.95;4.97;;;17.40;84.60;;;;;;5121276;27;20080;-57
2023/06/13 04:50:28;;;;;;;8.23;4.50;;;17.40;84.50;;;;;;5121576;28;20043;-57
2023/06/13 04:52:55;;;;;;;8.20;4.35;;;17.50;84.80;;;;;;5121201;28;20740;-57
2023/06/13 04:55:22;;;;;;;8.13;4.20;;;17.60;85.00;;;;;;5121273;28;20102;-57
2023/06/13 04:57:48;;;;;;;7.90;4.55;;;17.60;85.10;;;;;;5121474;28;20095;-57
2023/06/13 05:00:15;;;;;;;8.02;4.22;;;17.60;84.80;;;;;;5121041;28;20082;-57
2023/06/13 05:02:41;;;;;;;10.73;4.60;;;17.70;85.10;;;;;;5121094;28;20051;-57
2023/06/13 05:05:08;;;;;;;8.32;4.00;;;17.80;84.80;;;;;;5119573;28;20063;-57
2023/06/13 05:07:39;;;;;;;6.90;3.85;;;17.90;84.00;;;;;;5120663;28;20107;-57
2023/06/13 05:10:05;;;;;;;7.95;3.72;;;18.00;84.40;;;;;;5118938;28;20054;-57
2023/06/13 05:12:30;;;;;;;9.32;4.10;;;18.10;84.60;;;;;;5120844;28;20071;-57
2023/06/13 05:14:56;;;;;;;10.77;4.60;;;18.20;84.00;;;;;;5121040;28;20043;-57
2023/06/13 05:17:22;;;;;;;11.50;4.32;;;18.30;83.70;;;;;;5120762;28;20075;-57
2023/06/13 05:19:48;;;;;;;7.25;3.70;;;18.30;83.40;;;;;;5121022;28;20050;-58
2023/06/13 05:22:15;;;;;;;7.20;3.45;;;18.40;83.20;;;;;;5120867;28;20036;-57
2023/06/13 05:24:41;;;;;;;8.88;3.80;;;18.50;82.70;;;;;;5120424;28;20815;-56
2023/06/13 05:27:07;;;;;;;8.70;4.00;;;18.60;82.90;;;;;;5120227;28;20044;-57
2023/06/13 05:29:33;;;;;;;9.63;3.80;;;18.70;82.20;;;;;;5120673;28;20387;-57
2023/06/13 05:31:59;;;;;;;10.73;3.22;;;18.60;82.10;;;;;;5120604;28;20035;-57
2023/06/13 05:34:26;;;;;;;8.35;4.20;;;18.90;80.60;;;;;;5120166;28;20494;-57
2023/06/13 05:36:52;;;;;;;9.68;3.78;;;18.80;79.50;;;;;;5118632;28;20051;-58
2023/06/13 05:39:18;;;;;;;8.25;4.13;;;19.00;80.00;;;;;;5117094;28;20054;-56
2023/06/13 05:41:44;;;;;;;7.13;3.65;;;19.00;78.90;;;;;;5116761;28;20563;-57
2023/06/13 05:44:09;;;;;;;8.00;3.55;;;19.20;78.90;;;;;;5117027;28;20079;-57
2023/06/13 05:46:35;;;;;;;6.95;3.50;;;19.30;79.30;;;;;;5115886;28;20052;-57
2023/06/13 05:49:01;;;;;;;7.60;3.67;;;19.30;79.00;;;;;;5116862;27;20640;-57
2023/06/13 05:51:27;;;;;;;8.57;3.80;;;19.40;78.80;;;;;;5116627;28;20044;-58
2023/06/13 05:53:53;;;;;;;6.18;3.35;;;19.40;78.60;;;;;;5117117;28;20063;-58
2023/06/13 05:56:19;;;;;;;6.82;3.50;;;19.50;78.50;;;;;;5116491;28;20051;-56
2023/06/13 05:58:44;;;;;;;6.72;3.30;;;19.60;78.10;;;;;;5116846;28;20081;-57
2023/06/13 06:01:10;;;;;;;7.53;3.30;;;19.70;77.70;;;;;;5116161;28;20048;-57
2023/06/13 06:03:36;;;;;;;6.53;3.20;;;19.80;77.60;;;;;;5116283;28;20036;-57
2023/06/13 06:06:02;;;;;;;6.35;3.33;;;19.90;76.60;;;;;;5116510;28;20050;-57
2023/06/13 06:08:28;;;;;;;7.20;3.58;;;19.90;75.10;;;;;;5115921;28;20047;-57
2023/06/13 06:10:54;;;;;;;8.00;3.65;;;20.00;74.80;;;;;;5116675;28;20043;-58
2023/06/13 06:13:20;;;;;;;7.80;3.33;;;20.00;75.10;;;;;;5115962;28;20069;-57
2023/06/13 06:15:46;;;;;;;7.57;3.85;;;20.20;73.60;;;;;;5116319;28;20479;-58
2023/06/13 06:18:11;;;;;;;8.07;3.20;;;20.20;74.00;;;;;;5116108;28;20174;-57
2023/06/13 06:20:37;;;;;;;8.50;3.67;;;20.30;71.30;;;;;;5116276;28;20047;-57
2023/06/13 06:23:03;;;;;;;9.00;3.15;;;20.30;72.60;;;;;;5116221;28;20169;-56
2023/06/13 06:25:29;;;;;;;6.35;3.08;;;20.50;72.20;;;;;;5115252;28;20068;-57
2023/06/13 06:27:55;;;;;;;9.50;3.38;;;20.60;72.70;;;;;;5116468;28;20047;-57
2023/06/13 06:30:21;;;;;;;7.85;3.03;;;20.60;72.40;;;;;;5115752;28;20055;-57
2023/06/13 06:32:47;;;;;;;11.32;3.10;;;20.60;71.40;;;;;;5114483;28;20949;-57
2023/06/13 06:35:14;;;;;;;6.72;3.03;;;20.70;72.40;;;;;;5116080;28;20089;-57
2023/06/13 06:37:40;;;;;;;7.57;3.92;;;20.80;70.70;;;;;;5115405;28;20075;-57
2023/06/13 06:40:08;;;;;;;7.35;2.90;;;20.80;71.40;;;;;;5114922;28;20123;-57
2023/06/13 06:42:33;;;;;;;7.10;2.90;;;20.90;71.20;;;;;;5115697;28;20047;-57
2023/06/13 06:44:59;;;;;;;6.72;3.20;;;21.00;70.80;;;;;;5116401;28;20040;-57
2023/06/13 06:47:25;;;;;;;6.30;2.80;;;21.10;70.50;;;;;;5115304;28;20083;-57
2023/06/13 06:49:51;;;;;;;8.07;3.28;;;21.10;68.80;;;;;;5115470;28;20043;-57
2023/06/13 06:52:16;;;;;;;5.88;2.60;;;21.20;69.50;;;;;;5115825;28;20059;-57
2023/06/13 06:54:42;;;;;;;9.05;2.97;;;21.30;68.90;;;;;;5115242;28;20569;-57
2023/06/13 06:57:07;;;;;;;6.43;3.10;;;21.30;68.50;;;;;;5114055;28;20089;-57
2023/06/13 06:59:33;;;;;;;5.68;2.53;;;21.40;67.20;;;;;;5115181;28;20050;-57
2023/06/13 07:01:59;;;;;;;7.68;3.25;;;21.50;67.60;;;;;;5115081;28;20047;-57
2023/06/13 07:04:25;;;;;;;5.70;2.55;;;21.60;67.10;;;;;;5114763;28;20036;-57
2023/06/13 07:06:51;;;;;;;5.78;2.38;;;21.70;66.20;;;;;;5115771;28;20100;-57
2023/06/13 07:09:17;;;;;;;5.78;2.42;;;21.80;66.40;;;;;;5115003;28;20047;-57
2023/06/13 07:11:43;;;;;;;6.30;2.53;;;21.80;66.10;;;;;;5115438;28;20043;-57
2023/06/13 07:14:08;;;;;;;6.05;2.67;;;22.00;66.30;;;;;;5114662;28;20048;-57
2023/06/13 07:16:34;;;;;;;7.53;3.05;;;22.10;66.60;;;;;;5115106;28;20042;-57
2023/06/13 07:19:00;;;;;;;8.00;2.95;;;22.10;66.00;;;;;;5115425;28;20043;-57
2023/06/13 07:21:25;;;;;;;5.78;2.67;;;22.20;65.90;;;;;;5114983;28;20676;-56
2023/06/13 07:23:51;;;;;;;6.45;2.80;;;22.20;65.30;;;;;;5115245;28;20044;-58
2023/06/13 07:26:17;;;;;;;6.22;2.70;;;22.20;63.40;;;;;;5114301;28;20055;-57
2023/06/13 07:28:43;;;;;;;6.20;2.40;;;22.30;65.00;;;;;;5115077;28;20048;-57
2023/06/13 07:31:08;;;;;;;6.07;2.63;;;22.40;65.30;;;;;;5114282;28;20066;-58
2023/06/13 07:33:34;;;;;;;5.88;2.88;;;22.40;65.40;;;;;;5114844;28;20534;-57
2023/06/13 07:36:00;;;;;;;7.18;2.50;;;22.60;65.70;;;;;;5115079;28;20082;-57
2023/06/13 07:38:26;;;;;;;6.45;2.85;;;22.60;65.50;;;;;;5114516;28;20085;-57
2023/06/13 07:40:52;;;;;;;6.65;3.10;;;22.70;65.70;;;;;;5114057;28;20039;-57
2023/06/13 07:43:18;;;;;;;6.05;2.47;;;22.70;65.20;;;;;;5114704;28;20806;-57
2023/06/13 07:45:45;;;;;;;6.75;2.92;;;22.90;65.30;;;;;;5114828;28;20043;-58
2023/06/13 07:48:10;;;;;;;4.93;2.45;;;22.90;62.50;;;;;;5114789;28;20050;-58
2023/06/13 07:50:36;;;;;;;8.48;2.90;;;22.90;62.70;;;;;;5116559;28;20043;-57
2023/06/13 07:53:02;;;;;;;6.60;2.78;;;23.00;61.40;;;;;;5118505;28;20040;-57
2023/06/13 07:55:28;;;;;;;7.45;2.75;;;23.00;61.10;;;;;;5122154;28;20060;-57
2023/06/13 07:57:54;;;;;;;6.18;2.72;;;23.00;61.30;;;;;;5122718;28;20043;-56
2023/06/13 08:00:20;;;;;;;5.68;2.72;;;23.30;62.30;;;;;;5121178;28;20052;-57
2023/06/13 08:02:46;;;;;;;7.22;3.10;;;23.30;62.00;;;;;;5122181;28;20078;-58
2023/06/13 08:05:13;;;;;;;8.02;3.17;;;23.40;61.40;;;;;;5122288;28;20036;-58
2023/06/13 08:07:39;;;;;;;6.97;3.00;;;23.30;61.00;;;;;;5122083;28;20077;-57
2023/06/13 08:10:05;;;;;;;5.72;2.83;;;23.40;60.40;;;;;;5122185;27;20075;-58
2023/06/13 08:12:31;;;;;;;6.45;3.17;;;23.60;61.70;;;;;;5121848;28;20032;-57
2023/06/13 08:14:57;;;;;;;7.90;3.30;;;23.60;60.20;;;;;;5122158;28;20039;-58
2023/06/13 08:17:24;;;;;;;10.70;2.90;;;23.70;59.90;;;;;;5121789;28;20043;-57
2023/06/13 08:19:50;;;;;;;10.50;2.90;;;23.70;59.60;;;;;;5122154;28;20039;-57
2023/06/13 08:22:17;;;;;;;6.95;2.95;;;23.90;60.00;;;;;;5121772;28;20039;-57
2023/06/13 08:24:43;;;;;;;6.20;3.20;;;23.90;59.20;;;;;;5121744;28;20035;-58
2023/06/13 08:27:13;;;;;;;7.93;2.92;;;23.90;59.30;;;;;;5121815;28;20047;-58
2023/06/13 08:29:39;;;;;;;6.00;2.83;;;24.00;59.50;;;;;;5121413;28;20054;-58
2023/06/13 08:32:04;;;;;;;7.38;3.30;;;24.10;58.80;;;;;;5121691;28;20519;-57
2023/06/13 08:34:30;;;;;;;7.30;3.20;;;24.10;58.90;;;;;;5121526;28;20035;-57
2023/06/13 08:36:56;;;;;;;7.35;3.38;;;24.20;59.50;;;;;;5121701;28;20035;-58
2023/06/13 08:39:22;;;;;;;5.93;3.15;;;24.30;60.00;;;;;;5121771;28;20055;-57
2023/06/13 08:41:49;;;;;;;9.10;3.20;;;24.40;59.40;;;;;;5121428;28;20036;-57
2023/06/13 08:44:17;;;;;;;5.97;2.63;;;24.40;58.40;;;;;;5121422;28;20046;-57
2023/06/13 08:46:42;;;;;;;6.60;3.25;;;24.50;58.50;;;;;;5121317;28;20063;-56
2023/06/13 08:49:09;;;;;;;6.40;3.10;;;24.70;58.70;;;;;;5121372;28;20047;-57
2023/06/13 08:51:36;;;;;;;6.03;3.10;;;24.70;58.80;;;;;;5121004;28;20114;-57
2023/06/13 08:54:03;;;;;;;5.80;3.28;;;24.80;58.40;;;;;;5121537;28;20067;-57
2023/06/13 08:56:37;;;;;;;7.55;3.67;;;24.80;57.30;;;;;;5121286;27;20098;-55
2023/06/13 08:59:19;;;;;;;7.57;3.13;;;24.60;54.80;;;;;;5120804;28;20047;-56
2023/06/13 09:01:47;;;;;;;6.95;3.15;;;24.70;54.00;;;;;;5120849;28;20051;-56
2023/06/13 09:04:15;;;;;;;7.72;3.30;;;24.70;55.50;;;;;;5120310;28;20051;-57
2023/06/13 09:06:43;;;;;;;8.15;3.40;;;24.80;55.70;;;;;;5121523;28;20040;-57
2023/06/13 09:09:11;;;;;;;7.38;3.20;;;25.00;56.70;;;;;;5119679;28;20048;-56
2023/06/13 09:11:37;;;;;;;5.95;2.78;;;24.80;55.90;;;;;;5120772;28;20305;-56
2023/06/13 09:14:07;;;;;;;7.35;3.58;;;24.90;56.40;;;;;;5120997;28;20065;-57
2023/06/13 09:16:33;;;;;;;6.60;3.55;;;25.00;56.10;;;;;;5120428;28;20062;-56
2023/06/13 09:18:59;;;;;;;6.00;3.10;;;25.00;54.90;;;;;;5121091;28;20101;-57
2023/06/13 09:21:26;;;;;;;7.75;3.22;;;24.80;55.90;;;;;;5118938;28;20075;-57
2023/06/13 09:23:55;;;;;;;6.15;3.15;;;24.90;56.00;;;;;;5121091;28;20042;-57
2023/06/13 09:26:21;;;;;;;6.85;3.30;;;24.70;54.90;;;;;;5120637;27;20048;-57
2023/06/13 09:28:47;;;;;;;7.03;3.20;;;24.80;56.00;;;;;;5119014;28;20127;-56
2023/06/13 09:31:14;;;;;;;6.60;3.30;;;24.70;56.30;;;;;;5120540;28;20047;-57
2023/06/13 09:33:42;;;;;;;6.45;3.20;;;24.70;56.50;;;;;;5120235;27;20051;-57
2023/06/13 09:36:09;;;;;;;7.25;3.20;;;24.90;56.70;;;;;;5120763;28;20111;-56
2023/06/13 09:38:37;;;;;;;9.23;3.00;;;25.10;57.30;;;;;;5120232;28;20474;-56
2023/06/13 09:41:07;;;;;;;7.53;2.95;;;25.10;56.50;;;;;;5120800;28;20055;-56
2023/06/13 09:43:33;;;;;;;8.10;2.88;;;25.20;56.20;;;;;;5120318;28;20051;-57
2023/06/13 09:46:00;;;;;;;6.25;2.63;;;25.20;56.40;;;;;;5120183;28;20051;-55
2023/06/13 09:48:26;;;;;;;6.07;3.03;;;25.30;56.50;;;;;;5118694;28;20288;-56
2023/06/13 09:50:52;;;;;;;8.32;3.22;;;25.20;58.50;;;;;;5120116;28;20429;-56
2023/06/13 09:53:18;;;;;;;7.28;2.88;;;25.20;58.60;;;;;;5120030;28;21121;-54
2023/06/13 09:55:44;;;;;;;8.45;3.45;;;25.20;60.20;;;;;;5119685;28;20523;-54
2023/06/13 09:58:10;;;;;;;6.28;3.00;;;25.30;59.60;;;;;;5120015;28;20054;-54
2023/06/13 10:00:35;;;;;;;8.50;2.55;;;25.20;57.30;;;;;;5119012;28;20098;-56
2023/06/13 10:03:02;;;;;;;6.15;2.80;;;25.00;54.70;;;;;;5119675;28;20559;-56
2023/06/13 10:05:28;;;;;;;8.48;3.13;;;25.20;56.70;;;;;;5120022;28;20071;-57
2023/06/13 10:07:54;;;;;;;4.93;2.22;;;25.20;57.00;;;;;;5119791;28;20043;-55
2023/06/13 10:10:20;;;;;;;5.85;2.47;;;25.20;57.40;;;;;;5120196;28;20039;-57
2023/06/13 10:13:02;;;;;;;5.88;2.75;;;25.20;58.40;;;;;;5119299;28;20139;-56
2023/06/13 10:15:37;;;;;;;;;;;25.10;62.40;;;;;;5119518;28;20059;-56
2023/06/13 10:18:10;;;;;;;8.65;3.17;;;25.20;60.20;;;;;;5119777;28;19983;-56
2023/06/13 10:20:38;;;;;;;6.22;2.72;;;25.00;62.30;;;;;;5118163;28;20032;-56
2023/06/13 10:23:05;;;;;;;8.35;2.75;;;24.90;64.10;;;;;;5119236;28;20035;-57
2023/06/13 10:25:33;;;;;;;5.80;2.60;;;25.00;64.00;;;;;;5118893;27;20069;-56
2023/06/13 10:28:07;;;;;;;8.88;2.90;;;25.00;63.40;;;;;;5119770;28;20050;-56
2023/06/13 10:30:47;;;;;;;6.72;3.08;;;25.10;64.80;;;;;;5118962;28;20055;-54
2023/06/13 10:33:31;;;;;;;5.20;2.40;;;25.30;63.80;;;;;;5119191;28;20079;-56
2023/06/13 10:36:11;;;;;;;7.18;2.63;;;25.20;67.30;;;;;;5118686;28;20380;-57
2023/06/13 10:39:10;;;;;;;6.97;2.75;;;25.20;67.90;;;;;;5116613;28;20075;-56
2023/06/13 10:42:40;;;;;;;6.75;2.53;;;25.10;70.30;;;;;;5116984;28;20051;-56
2023/06/13 10:45:16;;;;;;;8.45;2.78;;;25.20;70.40;;;;;;5083761;28;20077;-56
2023/06/13 10:47:41;;;;;;;7.78;2.67;;;25.30;69.90;;;;;;5118771;28;20051;-56
2023/06/13 10:50:08;;;;;;;7.05;2.50;;;25.10;69.10;;;;;;5118995;28;20028;-56
2023/06/13 10:52:34;;;;;;;6.10;2.50;;;25.00;68.00;;;;;;5118862;27;20356;-57
2023/06/13 10:55:01;;;;;;;6.53;2.60;;;25.30;68.70;;;;;;5118996;28;20031;-56
2023/06/13 10:57:48;;;;;;;6.35;2.80;;;24.90;68.30;;;;;;5119286;28;20092;-56
2023/06/13 11:00:40;;;;;;;6.63;2.80;;;25.00;67.00;;;;;;5118512;28;20048;-56
2023/06/13 11:03:13;;;;;;;5.30;2.58;;;25.00;67.20;;;;;;5117483;28;20058;-56
2023/06/13 11:05:44;;;;;;;6.35;2.38;;;24.90;68.00;;;;;;5118537;28;20043;-57
2023/06/13 11:08:28;;;;;;;9.70;2.70;;;25.10;69.30;;;;;;5118254;28;20434;-56
2023/06/13 11:10:56;;;;;;;8.85;2.88;;;25.00;67.70;;;;;;5118979;28;20071;-57
2023/06/13 11:13:23;;;;;;;9.25;3.22;;;24.90;66.40;;;;;;5118242;28;20104;-56
2023/06/13 11:15:52;;;;;;;5.47;2.40;;;24.70;64.60;;;;;;5118238;28;20059;-57
2023/06/13 11:18:18;;;;;;;7.07;2.67;;;24.90;65.80;;;;;;5118136;28;20066;-55
2023/06/13 11:20:49;;;;;;;6.68;2.63;;;25.00;65.80;;;;;;5118582;28;20059;-57
2023/06/13 11:23:17;;;;;;;5.73;2.57;;;24.70;66.00;;;;;;5118610;28;20106;-57
2023/06/13 11:25:43;;;;;;;8.75;2.47;;;24.90;66.50;;;;;;5116433;28;20040;-57
2023/06/13 11:28:09;;;;;;;5.50;2.15;;;25.00;66.50;;;;;;5118538;28;20095;-57
2023/06/13 11:30:34;;;;;;;12.90;3.20;;;25.20;66.80;;;;;;5118199;28;20074;-56
2023/06/13 11:33:02;;;;;;;5.93;2.58;;;25.10;66.50;;;;;;5118400;28;20047;-57
2023/06/13 11:35:28;;;;;;;6.82;2.40;;;25.20;66.70;;;;;;5118140;28;20067;-57
2023/06/13 11:38:01;;;;;;;6.60;2.67;;;24.70;66.60;;;;;;5118370;28;20565;-57
2023/06/13 11:40:35;;;;;;;5.93;2.42;;;24.90;67.80;;;;;;5118436;28;20113;-58
2023/06/13 11:43:01;;;;;;;6.93;2.00;;;25.00;68.00;;;;;;5118046;28;20032;-56
2023/06/13 11:45:27;;;;;;;6.05;2.10;;;25.20;67.50;;;;;;5118562;28;20082;-57
2023/06/13 11:47:57;;;;;;;5.32;2.00;;;25.20;66.10;;;;;;5118136;28;20047;-57
2023/06/13 11:50:27;;;;;;;7.13;2.38;;;25.20;66.00;;;;;;5118221;28;20047;-57
2023/06/13 11:53:09;;;;;;;5.63;2.25;;;25.20;65.80;;;;;;5117731;28;20043;-57
2023/06/13 11:55:36;;;;;;;8.00;2.60;;;25.20;65.30;;;;;;5117580;28;20040;-57
2023/06/13 11:58:02;;;;;;;7.10;2.28;;;25.10;65.70;;;;;;5118722;28;20047;-57
2023/06/13 12:00:28;;;;;;;7.00;2.00;;;25.10;64.80;;;;;;5117938;28;20044;-57
2023/06/13 12:02:55;;;;;;;6.50;2.10;;;25.40;65.90;;;;;;5117894;28;20093;-57
2023/06/13 12:05:22;;;;;;;6.38;2.00;;;25.40;66.20;;;;;;5117943;28;20459;-57
2023/06/13 12:07:49;;;;;;;6.25;2.08;;;25.20;65.80;;;;;;5117913;28;20074;-56
2023/06/13 12:10:15;;;;;;;5.38;2.10;;;25.20;66.30;;;;;;5118176;28;20399;-56
2023/06/13 12:12:41;;;;;;;6.05;2.22;;;24.90;67.20;;;;;;5117603;28;20048;-57
2023/06/13 12:15:13;;;;;;;5.65;2.38;;;25.20;67.60;;;;;;5118463;28;20047;-58
2023/06/13 12:18:00;;;;;;;6.70;2.10;;;25.20;67.20;;;;;;5117564;28;20083;-58
2023/06/13 12:20:27;;;;;;;6.68;2.33;;;25.20;67.20;;;;;;5097833;28;20048;-58
2023/06/13 12:22:56;;;;;;;6.15;1.90;;;25.40;67.40;;;;;;5097389;28;20048;-58
2023/06/13 12:25:25;;;;;;;6.45;2.20;;;25.00;66.70;;;;;;5097080;28;20036;-58
2023/06/13 12:27:51;;;;;;;6.97;2.30;;;25.30;67.40;;;;;;5098024;28;20066;-58
2023/06/13 12:30:18;;;;;;;5.05;2.20;;;25.30;67.80;;;;;;5097255;28;20503;-58
2023/06/13 12:32:48;;;;;;;5.72;1.90;;;25.00;67.20;;;;;;5097506;28;20032;-56
2023/06/13 12:35:23;;;;;;;5.35;2.05;;;24.80;68.30;;;;;;5111624;28;20040;-58
2023/06/13 12:38:05;;;;;;;5.50;2.10;;;24.90;68.30;;;;;;5114971;28;20422;-58
2023/06/13 12:40:32;;;;;;;6.53;2.45;;;24.90;68.70;;;;;;5101353;28;20051;-57
2023/06/13 12:43:01;;;;;;;6.88;2.05;;;25.20;68.60;;;;;;5101070;28;20048;-57
2023/06/13 12:45:28;;;;;;;5.35;2.00;;;25.10;67.90;;;;;;5101257;28;20115;-58
2023/06/13 12:47:55;;;;;;;6.05;2.28;;;25.00;68.30;;;;;;5100849;28;20048;-57